Time;durP1;ratioP1;P1;durP2;ratioP2;P2;SDS_P1;SDS_P2;PMS_P1;PMS_P2;Temp;Humidity;BMP_temperature;BMP_pressure;BME280_temperature;BME280_humidity;BME280_pressure;Samples;Min_cycle;Max_cycle;Signal;HPM_P1;HPM_P2
2021/12/05 00:22:46;;;;;;;2.83;1.30;;;17.20;57.20;;;;;;5054728;28;20182;-61
2021/12/05 00:25:14;;;;;;;2.03;1.48;;;17.10;57.10;;;;;;5054743;28;20179;-60
2021/12/05 00:27:52;;;;;;;2.30;1.60;;;17.10;57.20;;;;;;5053689;28;20195;-62
2021/12/05 00:41:43;;;;;;;2.17;1.20;;;17.10;57.20;;;;;;5053652;28;20174;-61
2021/12/05 00:44:52;;;;;;;3.03;1.77;;;17.10;57.10;;;;;;5053861;28;20681;-61
2021/12/05 00:47:27;;;;;;;3.35;1.38;;;17.10;57.10;;;;;;5054144;28;20198;-59
2021/12/05 01:00:39;;;;;;;2.00;1.45;;;17.00;57.10;;;;;;5053768;28;20331;-61
2021/12/05 01:03:29;;;;;;;1.45;1.20;;;17.00;57.10;;;;;;5053148;28;20537;-60
2021/12/05 01:08:57;;;;;;;2.50;1.33;;;16.90;57.10;;;;;;5053432;28;20250;-61
2021/12/05 01:14:29;;;;;;;2.00;1.27;;;16.90;57.10;;;;;;5053810;28;20701;-61
2021/12/05 01:16:43;;;;;;;1.40;1.30;;;16.90;57.10;;;;;;5052067;28;20325;-61
2021/12/05 01:19:09;;;;;;;1.55;1.13;;;16.90;57.10;;;;;;5053671;28;20191;-61
2021/12/05 01:21:36;;;;;;;1.65;1.27;;;16.90;57.10;;;;;;5053226;28;20175;-61
2021/12/05 01:29:52;;;;;;;1.77;1.63;;;16.90;57.10;;;;;;5053001;28;20597;-61
2021/12/05 01:46:09;;;;;;;2.03;1.40;;;16.80;57.00;;;;;;5051980;28;20230;-60
2021/12/05 01:54:22;;;;;;;2.17;1.50;;;16.80;57.10;;;;;;5050623;28;20174;-60
2021/12/05 02:02:41;;;;;;;1.95;1.17;;;16.70;57.00;;;;;;5052710;28;20236;-60
2021/12/05 02:08:04;;;;;;;1.55;1.08;;;16.70;57.00;;;;;;5052728;28;20182;-60
2021/12/05 02:10:55;;;;;;;1.95;1.70;;;16.70;57.10;;;;;;5052481;28;20191;-60
2021/12/05 02:16:23;;;;;;;3.40;1.40;;;16.70;57.00;;;;;;5052504;28;20241;-60
2021/12/05 02:32:53;;;;;;;2.80;1.45;;;16.60;57.00;;;;;;5051998;28;20522;-60
2021/12/05 02:35:42;;;;;;;1.55;1.30;;;16.60;57.00;;;;;;5051120;28;20661;-61
2021/12/05 02:38:49;;;;;;;2.30;1.30;;;16.60;57.00;;;;;;5052070;28;20175;-61
2021/12/05 02:43:44;;;;;;;2.22;1.67;;;16.60;57.00;;;;;;5051687;28;20260;-61
2021/12/05 02:46:12;;;;;;;3.03;1.52;;;16.50;56.90;;;;;;5051954;28;20617;-61
2021/12/05 02:48:38;;;;;;;2.08;1.40;;;16.50;57.00;;;;;;5050713;28;20194;-60
2021/12/05 02:51:09;;;;;;;1.77;1.33;;;16.50;57.00;;;;;;5051799;28;20227;-60
2021/12/05 02:53:40;;;;;;;2.10;1.60;;;16.50;56.90;;;;;;5051348;28;20221;-60
2021/12/05 02:56:07;;;;;;;1.90;1.42;;;16.50;56.90;;;;;;5051169;28;20227;-60
2021/12/05 02:58:44;;;;;;;2.50;1.58;;;16.50;56.90;;;;;;5051502;28;20229;-61
2021/12/05 03:01:20;;;;;;;1.52;1.30;;;16.50;56.80;;;;;;5050976;28;20512;-59
2021/12/05 03:03:45;;;;;;;1.40;1.30;;;16.50;56.90;;;;;;5050789;28;20661;-60
2021/12/05 03:06:20;;;;;;;2.38;1.65;;;16.40;56.80;;;;;;5051661;28;20177;-60
2021/12/05 03:08:47;;;;;;;1.83;1.40;;;16.40;56.70;;;;;;5050847;28;20264;-59
2021/12/05 03:11:12;;;;;;;2.65;1.80;;;16.40;56.70;;;;;;5051395;28;20175;-59
2021/12/05 03:13:40;;;;;;;2.95;1.45;;;16.40;56.70;;;;;;5051052;28;20187;-59
2021/12/05 03:16:06;;;;;;;1.67;1.58;;;16.40;56.70;;;;;;5050901;28;20175;-60
2021/12/05 03:18:31;;;;;;;2.40;1.45;;;16.40;56.70;;;;;;5051167;28;20544;-59
2021/12/05 03:20:58;;;;;;;2.17;1.60;;;16.40;56.70;;;;;;5051449;28;20610;-60
2021/12/05 03:23:25;;;;;;;3.05;1.73;;;16.40;56.70;;;;;;5050528;28;20218;-60
2021/12/05 03:25:50;;;;;;;3.28;1.40;;;16.40;56.60;;;;;;5051425;28;20179;-60
2021/12/05 03:28:16;;;;;;;1.77;1.50;;;16.40;56.70;;;;;;5051525;28;20186;-60
2021/12/05 03:30:41;;;;;;;1.58;1.48;;;16.30;56.70;;;;;;5050767;28;20178;-60
2021/12/05 03:33:07;;;;;;;2.00;1.58;;;16.30;56.60;;;;;;5051578;28;20167;-61
2021/12/05 03:35:32;;;;;;;2.50;1.40;;;16.30;56.60;;;;;;5051010;28;20490;-62
2021/12/05 03:37:58;;;;;;;2.78;1.50;;;16.30;56.60;;;;;;5050605;28;20202;-59
2021/12/05 03:40:25;;;;;;;1.75;1.40;;;16.30;56.60;;;;;;5050751;28;20258;-60
2021/12/05 03:42:50;;;;;;;3.35;1.67;;;16.30;56.60;;;;;;5051416;28;20179;-60
2021/12/05 03:45:19;;;;;;;1.55;1.45;;;16.30;56.60;;;;;;5050414;28;20228;-59
2021/12/05 03:47:45;;;;;;;2.20;1.45;;;16.30;56.60;;;;;;5050019;28;20175;-60
2021/12/05 03:50:11;;;;;;;2.05;1.50;;;16.30;56.50;;;;;;5051058;28;20222;-59
2021/12/05 03:52:36;;;;;;;2.92;1.50;;;16.30;56.60;;;;;;5050091;28;20179;-60
2021/12/05 03:55:03;;;;;;;2.03;1.25;;;16.30;56.60;;;;;;5051097;28;20171;-60
2021/12/05 03:57:29;;;;;;;2.40;1.30;;;16.30;56.50;;;;;;5051047;28;20174;-62
2021/12/05 03:59:55;;;;;;;3.17;1.52;;;16.30;56.60;;;;;;5050501;28;20210;-61
2021/12/05 04:02:21;;;;;;;3.75;1.60;;;16.30;56.50;;;;;;5050737;28;20644;-60
2021/12/05 04:04:46;;;;;;;1.90;1.42;;;16.20;56.50;;;;;;5050621;28;20229;-60
2021/12/05 04:07:13;;;;;;;2.05;1.52;;;16.20;56.50;;;;;;5050906;28;20180;-60
2021/12/05 04:09:39;;;;;;;3.28;1.50;;;16.20;56.50;;;;;;5050748;28;20263;-60
2021/12/05 04:12:05;;;;;;;2.30;1.40;;;16.20;56.40;;;;;;5052586;28;20556;-60
2021/12/05 04:14:39;;;;;;;1.70;1.60;;;16.20;56.40;;;;;;5054734;28;20175;-60
2021/12/05 04:17:05;;;;;;;2.05;1.50;;;16.20;56.50;;;;;;5055104;28;20183;-60
2021/12/05 04:19:31;;;;;;;2.58;1.60;;;16.20;56.50;;;;;;5053226;28;20191;-60
2021/12/05 04:21:57;;;;;;;2.13;1.30;;;16.20;56.50;;;;;;5054690;28;20183;-60
2021/12/05 04:24:22;;;;;;;2.60;1.40;;;16.20;56.50;;;;;;5054049;28;20214;-61
2021/12/05 04:26:48;;;;;;;1.20;1.10;;;16.20;56.50;;;;;;5053940;28;20174;-60
2021/12/05 04:29:14;;;;;;;3.70;1.52;;;16.20;56.40;;;;;;5054703;28;20229;-61
2021/12/05 04:31:40;;;;;;;2.58;1.55;;;16.10;56.40;;;;;;5054263;28;20179;-61
2021/12/05 04:34:05;;;;;;;1.98;1.50;;;16.10;56.40;;;;;;5053713;28;20215;-60
2021/12/05 04:36:31;;;;;;;2.72;1.50;;;16.20;56.50;;;;;;5054437;28;20244;-60
2021/12/05 04:38:56;;;;;;;3.08;1.65;;;16.10;56.40;;;;;;5054250;28;20178;-61
2021/12/05 04:41:23;;;;;;;1.55;1.30;;;16.10;56.50;;;;;;5053456;28;20171;-60
2021/12/05 04:43:50;;;;;;;1.58;1.33;;;16.10;56.50;;;;;;5053885;28;20306;-61
2021/12/05 04:46:17;;;;;;;4.50;1.73;;;16.10;56.50;;;;;;5054330;28;20179;-60
2021/12/05 04:48:46;;;;;;;1.90;1.30;;;16.10;56.50;;;;;;5053248;28;20183;-60
2021/12/05 04:51:11;;;;;;;3.42;1.55;;;16.10;56.50;;;;;;5053765;28;20246;-60
2021/12/05 04:53:37;;;;;;;2.90;1.77;;;16.10;57.20;;;;;;5053893;28;20214;-60
2021/12/05 04:56:03;;;;;;;1.60;1.50;;;16.30;56.60;;;;;;5053505;28;20214;-60
2021/12/05 04:58:28;;;;;;;2.53;1.60;;;16.10;56.50;;;;;;5053491;28;20179;-60
2021/12/05 05:00:57;;;;;;;2.28;1.60;;;16.10;56.50;;;;;;5053903;28;20182;-60
2021/12/05 05:03:25;;;;;;;1.90;1.40;;;16.10;56.60;;;;;;5052757;28;20203;-61
2021/12/05 05:05:58;;;;;;;1.80;1.30;;;16.00;56.50;;;;;;5053548;28;20213;-60
2021/12/05 05:08:26;;;;;;;2.80;1.70;;;16.00;56.50;;;;;;5052898;28;20241;-61
2021/12/05 05:10:51;;;;;;;2.92;1.60;;;16.10;56.50;;;;;;5053913;28;20254;-60
2021/12/05 05:13:17;;;;;;;1.75;1.60;;;16.00;56.50;;;;;;5053643;28;20508;-61
2021/12/05 05:15:42;;;;;;;1.92;1.35;;;16.00;56.50;;;;;;5052405;28;20553;-61
2021/12/05 05:18:10;;;;;;;3.38;1.40;;;16.00;56.60;;;;;;5053575;28;20171;-61
2021/12/05 05:26:14;;;;;;;1.52;1.30;;;16.00;56.60;;;;;;5053308;28;20542;-60
2021/12/05 05:47:31;;;;;;;2.53;1.67;;;15.90;56.60;;;;;;5052674;28;20644;-59
2021/12/05 05:49:59;;;;;;;1.90;1.35;;;15.90;56.60;;;;;;5052872;28;20194;-59
2021/12/05 05:52:26;;;;;;;2.88;1.55;;;15.90;56.60;;;;;;5052199;28;20236;-60
2021/12/05 05:54:52;;;;;;;2.53;1.60;;;15.90;56.60;;;;;;5052919;28;20181;-60
2021/12/05 05:57:24;;;;;;;2.65;1.80;;;15.90;56.60;;;;;;5052709;28;20697;-60
2021/12/05 05:59:58;;;;;;;2.05;1.58;;;15.90;56.60;;;;;;5052699;28;20671;-61
2021/12/05 06:05:07;;;;;;;2.05;1.40;;;15.90;56.60;;;;;;5051975;28;20306;-60
2021/12/05 06:07:40;;;;;;;1.83;1.45;;;15.90;56.60;;;;;;5052233;28;20562;-60
2021/12/05 06:10:06;;;;;;;1.73;1.38;;;15.90;56.60;;;;;;5052734;28;20214;-60
2021/12/05 06:12:32;;;;;;;3.75;1.70;;;15.90;56.60;;;;;;5051569;28;20171;-60
2021/12/05 06:14:57;;;;;;;2.42;1.40;;;15.90;56.60;;;;;;5052423;28;20182;-61
2021/12/05 06:17:23;;;;;;;1.67;1.42;;;15.90;56.70;;;;;;5052097;28;20498;-60
2021/12/05 06:19:53;;;;;;;1.48;1.13;;;15.80;56.70;;;;;;5051883;28;20186;-59
2021/12/05 06:22:19;;;;;;;3.05;1.45;;;15.80;56.60;;;;;;5052209;28;20183;-60
2021/12/05 06:24:44;;;;;;;1.42;1.23;;;15.80;56.70;;;;;;5052236;28;20221;-59
2021/12/05 06:27:10;;;;;;;2.25;1.73;;;15.80;56.70;;;;;;5051382;28;20258;-60
2021/12/05 06:29:37;;;;;;;2.50;1.42;;;16.00;56.80;;;;;;5052058;28;20507;-60
2021/12/05 06:37:47;;;;;;;2.85;1.67;;;15.80;56.60;;;;;;5051829;28;20181;-59
2021/12/05 06:43:01;;;;;;;1.77;1.10;;;15.80;56.70;;;;;;5051973;28;20178;-60
2021/12/05 06:48:10;;;;;;;1.40;1.30;;;15.80;56.60;;;;;;5051186;28;20262;-60
2021/12/05 06:50:36;;;;;;;1.35;1.10;;;15.80;56.70;;;;;;5051665;28;20258;-59
2021/12/05 06:53:03;;;;;;;1.50;1.40;;;15.70;56.60;;;;;;5051934;28;20250;-60
2021/12/05 06:55:28;;;;;;;2.03;1.35;;;15.70;56.60;;;;;;5050959;28;20186;-60
2021/12/05 06:57:54;;;;;;;1.65;1.20;;;15.70;56.60;;;;;;5051832;28;20171;-60
2021/12/05 07:00:23;;;;;;;2.40;0.90;;;15.80;56.70;;;;;;5051272;28;20187;-60
2021/12/05 07:02:49;;;;;;;1.80;1.33;;;15.70;56.70;;;;;;5051042;28;20619;-60
2021/12/05 07:05:35;;;;;;;1.88;1.30;;;15.80;56.70;;;;;;5051835;28;20293;-59
2021/12/05 07:08:00;;;;;;;2.40;1.40;;;15.80;56.80;;;;;;5051018;28;20174;-60
2021/12/05 07:10:26;;;;;;;3.05;1.33;;;15.90;56.90;;;;;;5051532;28;20193;-60
2021/12/05 07:15:31;;;;;;;1.58;1.15;;;16.10;56.80;;;;;;5050844;28;20167;-60
2021/12/05 07:26:21;;;;;;;1.50;1.27;;;16.80;55.70;;;;;;5051510;28;20252;-60
2021/12/05 07:42:28;;;;;;;2.67;0.85;;;18.20;53.40;;;;;;5051169;28;20262;-59
2021/12/05 07:44:55;;;;;;;1.25;1.02;;;18.40;53.00;;;;;;5050666;28;20210;-60
2021/12/05 07:47:23;;;;;;;0.70;0.70;;;18.50;52.80;;;;;;5053689;28;20228;-59
2021/12/05 07:49:49;;;;;;;1.40;1.08;;;18.60;52.60;;;;;;5055028;28;20186;-59
2021/12/05 07:52:19;;;;;;;0.95;0.80;;;18.70;52.60;;;;;;5054752;28;20541;-59
2021/12/05 07:54:50;;;;;;;0.90;0.77;;;18.70;52.50;;;;;;5055347;28;20554;-60
2021/12/05 07:59:59;;;;;;;1.70;1.27;;;18.80;52.60;;;;;;5055001;28;20171;-60
2021/12/05 08:16:09;;;;;;;1.17;0.85;;;18.70;53.00;;;;;;5054765;28;20177;-65
2021/12/05 08:18:35;;;;;;;3.33;1.55;;;18.60;53.20;;;;;;5053867;28;20233;-66
2021/12/05 08:21:01;;;;;;;0.90;0.90;;;18.50;53.40;;;;;;5054805;28;20175;-65
2021/12/05 08:23:27;;;;;;;1.38;1.05;;;18.40;53.40;;;;;;5054216;28;20675;-65
2021/12/05 08:26:04;;;;;;;0.93;0.93;;;18.40;53.70;;;;;;5053842;28;20320;-64
2021/12/05 08:31:14;;;;;;;1.38;1.20;;;18.30;53.80;;;;;;5054660;28;20701;-65
2021/12/05 08:36:34;;;;;;;1.15;0.80;;;18.30;53.70;;;;;;5054419;28;20195;-66
2021/12/05 09:20:36;;;;;;;3.03;1.20;;;18.70;54.20;;;;;;5053318;28;20633;-62
2021/12/05 09:25:43;;;;;;;4.35;1.30;;;18.70;54.40;;;;;;5052713;28;20761;-63
2021/12/05 09:39:24;;;;;;;2.67;1.08;;;18.80;54.40;;;;;;5040963;28;20187;-64
2021/12/05 10:06:51;;;;;;;4.32;1.42;;;18.40;55.50;;;;;;5052318;28;20237;-64
2021/12/05 10:12:19;;;;;;;1.27;1.00;;;18.40;55.50;;;;;;5052068;28;20183;-64
2021/12/05 10:15:12;;;;;;;3.55;0.98;;;18.30;55.50;;;;;;5052213;28;20175;-65
2021/12/05 10:18:10;;;;;;;2.85;1.10;;;18.30;55.80;;;;;;5051476;28;20536;-64
2021/12/05 10:38:50;;;;;;;1.48;0.82;;;18.20;56.20;;;;;;5052064;28;20171;-65
2021/12/05 10:44:03;;;;;;;2.33;0.80;;;18.20;56.00;;;;;;5052162;28;20211;-64
2021/12/05 10:46:29;;;;;;;2.83;0.90;;;18.20;56.00;;;;;;5051141;28;20175;-65
2021/12/05 10:49:06;;;;;;;1.55;1.00;;;18.10;56.00;;;;;;5051903;28;20186;-66
2021/12/05 10:51:46;;;;;;;3.22;0.90;;;18.00;56.10;;;;;;5051528;28;20238;-64
2021/12/05 10:54:19;;;;;;;1.25;1.05;;;18.00;56.30;;;;;;5051153;28;20589;-65
2021/12/05 10:56:51;;;;;;;1.92;0.80;;;18.00;56.50;;;;;;5051817;28;20179;-65
2021/12/05 10:59:38;;;;;;;2.42;0.90;;;18.00;56.50;;;;;;5051915;28;20185;-67
2021/12/05 11:02:14;;;;;;;1.60;0.98;;;18.00;56.50;;;;;;5050864;28;20186;-64
2021/12/05 11:04:41;;;;;;;1.27;1.00;;;18.00;56.50;;;;;;5051424;28;20228;-64
2021/12/05 11:07:15;;;;;;;1.52;0.93;;;18.10;56.40;;;;;;5051105;28;20174;-64
2021/12/05 11:09:48;;;;;;;1.08;0.85;;;18.10;56.40;;;;;;5051442;28;20590;-64
2021/12/05 11:12:26;;;;;;;5.32;0.68;;;18.10;56.40;;;;;;5051633;28;20511;-62
2021/12/05 11:15:14;;;;;;;2.35;1.13;;;18.10;56.40;;;;;;5050912;28;20182;-63
2021/12/05 11:17:43;;;;;;;2.28;0.77;;;18.10;56.40;;;;;;5051412;28;20302;-63
2021/12/05 11:20:21;;;;;;;2.22;0.80;;;18.00;56.40;;;;;;5051409;28;20210;-62
2021/12/05 11:22:50;;;;;;;1.35;0.60;;;18.00;56.50;;;;;;5050571;28;20175;-63
2021/12/05 11:25:23;;;;;;;1.40;1.00;;;18.00;56.50;;;;;;5051366;28;20199;-62
2021/12/05 11:28:00;;;;;;;1.63;1.02;;;18.00;56.70;;;;;;5051518;28;20190;-63
2021/12/05 11:30:33;;;;;;;1.13;0.98;;;18.00;56.70;;;;;;5051140;28;20189;-63
2021/12/05 11:33:19;;;;;;;1.17;0.60;;;18.00;56.80;;;;;;5051154;28;20183;-64
2021/12/05 11:35:53;;;;;;;0.65;0.65;;;18.10;56.70;;;;;;5051065;28;20188;-64
2021/12/05 11:38:26;;;;;;;0.80;0.50;;;18.10;56.70;;;;;;5051204;28;20653;-64
2021/12/05 11:40:52;;;;;;;0.88;0.80;;;18.00;56.60;;;;;;5051561;28;20179;-63
2021/12/05 11:43:39;;;;;;;2.15;0.90;;;18.10;56.60;;;;;;5050946;28;20201;-65
2021/12/05 11:46:11;;;;;;;1.38;0.82;;;18.10;56.60;;;;;;5051467;28;20179;-64
2021/12/05 11:48:43;;;;;;;1.85;0.88;;;18.00;56.60;;;;;;5051217;28;20194;-66
2021/12/05 11:51:38;;;;;;;2.78;1.15;;;18.00;56.70;;;;;;5050488;28;20238;-64
2021/12/05 11:54:09;;;;;;;1.45;0.90;;;18.00;56.80;;;;;;5051414;28;20194;-65
2021/12/05 11:56:34;;;;;;;0.65;0.65;;;18.00;57.40;;;;;;5050321;28;20659;-63
2021/12/05 11:59:10;;;;;;;1.40;0.75;;;18.00;56.80;;;;;;5051223;28;20179;-63
2021/12/05 12:02:05;;;;;;;1.83;0.82;;;18.00;56.70;;;;;;5051152;28;20170;-65
2021/12/05 12:04:43;;;;;;;0.98;0.70;;;18.10;56.60;;;;;;5050023;28;20686;-69
2021/12/05 12:07:16;;;;;;;1.23;0.82;;;18.10;56.70;;;;;;5051272;28;20177;-69
2021/12/05 12:09:41;;;;;;;1.48;1.00;;;18.00;56.50;;;;;;5050734;28;20525;-68
2021/12/05 12:12:09;;;;;;;2.20;1.10;;;18.00;56.50;;;;;;5050688;28;20203;-67
2021/12/05 12:14:35;;;;;;;0.70;0.70;;;17.90;56.60;;;;;;5050841;28;20667;-68
2021/12/05 12:17:02;;;;;;;1.30;0.80;;;17.90;56.80;;;;;;5050940;28;20175;-61
2021/12/05 12:19:28;;;;;;;0.90;0.80;;;17.90;56.80;;;;;;5049803;28;20178;-60
2021/12/05 12:21:57;;;;;;;2.20;0.90;;;17.80;56.70;;;;;;5050869;28;20171;-60
2021/12/05 12:24:23;;;;;;;2.33;1.10;;;17.70;56.80;;;;;;5049914;28;20241;-61
2021/12/05 12:26:49;;;;;;;1.88;1.00;;;17.70;56.70;;;;;;5050874;28;20662;-64
2021/12/05 12:29:15;;;;;;;2.50;0.80;;;17.70;56.60;;;;;;5050821;28;20270;-64
2021/12/05 12:31:42;;;;;;;4.18;0.98;;;17.80;56.60;;;;;;5049886;28;20175;-64
2021/12/05 12:34:13;;;;;;;1.45;1.00;;;17.90;56.50;;;;;;5054364;28;20625;-65
2021/12/05 12:36:45;;;;;;;3.17;0.80;;;17.90;56.60;;;;;;5054243;28;20187;-65
2021/12/05 12:39:17;;;;;;;0.93;0.80;;;17.90;56.40;;;;;;5053619;28;20176;-65
2021/12/05 12:42:01;;;;;;;1.92;0.60;;;17.90;56.50;;;;;;5053980;28;20175;-65
2021/12/05 12:44:27;;;;;;;3.97;0.65;;;17.80;56.40;;;;;;5053957;28;20207;-65
2021/12/05 12:46:57;;;;;;;0.73;0.68;;;17.80;56.60;;;;;;5053425;28;20193;-64
2021/12/05 12:49:33;;;;;;;1.35;1.00;;;17.80;56.70;;;;;;5053921;28;20213;-64
2021/12/05 12:52:14;;;;;;;2.17;0.93;;;17.80;56.70;;;;;;5054006;28;20316;-64
2021/12/05 12:54:48;;;;;;;3.03;1.10;;;17.80;56.80;;;;;;5053036;28;20194;-64
2021/12/05 12:57:24;;;;;;;1.00;0.90;;;17.80;56.70;;;;;;5054483;28;20702;-64
2021/12/05 13:00:18;;;;;;;2.20;1.02;;;17.90;56.80;;;;;;5058983;28;20664;-65
2021/12/05 13:11:14;;;;;;;1.75;1.10;;;18.00;56.20;;;;;;5052821;28;20665;-62
2021/12/05 13:13:41;;;;;;;1.35;0.80;;;18.00;56.20;;;;;;5052594;28;20588;-63
2021/12/05 13:16:32;;;;;;;1.60;1.10;;;18.00;56.30;;;;;;5062342;28;20178;-64
2021/12/05 13:19:09;;;;;;;1.98;0.88;;;17.90;56.30;;;;;;5073672;28;20217;-63
2021/12/05 13:21:40;;;;;;;2.90;1.23;;;17.90;56.40;;;;;;5072572;28;20178;-63
2021/12/05 13:24:31;;;;;;;2.50;1.08;;;17.90;56.30;;;;;;5073334;28;20319;-63
2021/12/05 13:27:07;;;;;;;2.75;0.80;;;18.00;56.30;;;;;;5073575;28;20220;-63
2021/12/05 13:29:51;;;;;;;1.77;0.90;;;18.00;56.30;;;;;;5072512;28;20543;-64
2021/12/05 13:32:18;;;;;;;1.52;0.90;;;18.00;56.10;;;;;;5071978;28;20170;-64
2021/12/05 13:34:48;;;;;;;3.53;0.98;;;18.10;56.10;;;;;;5052844;28;20225;-65
2021/12/05 13:37:15;;;;;;;1.60;0.80;;;18.10;56.00;;;;;;5053287;28;20215;-65
2021/12/05 13:39:54;;;;;;;1.10;0.90;;;18.20;55.90;;;;;;5052811;28;20175;-64
2021/12/05 13:42:41;;;;;;;2.00;0.90;;;18.20;55.90;;;;;;5052388;28;20175;-64
2021/12/05 13:45:14;;;;;;;1.52;0.88;;;18.10;55.90;;;;;;5052745;28;20211;-65
2021/12/05 13:47:45;;;;;;;2.00;0.80;;;18.10;56.00;;;;;;5052844;28;20183;-64
2021/12/05 13:50:23;;;;;;;0.95;0.60;;;18.00;56.10;;;;;;5052228;28;20252;-63
2021/12/05 13:52:52;;;;;;;1.13;0.68;;;18.00;56.10;;;;;;5052908;28;20549;-63
2021/12/05 13:55:36;;;;;;;0.75;0.75;;;18.00;56.10;;;;;;5053122;28;20183;-63
2021/12/05 13:58:30;;;;;;;1.33;0.80;;;18.00;56.70;;;;;;5052849;28;20618;-63
2021/12/05 14:01:11;;;;;;;1.48;0.88;;;18.00;56.00;;;;;;5052765;28;20263;-64
2021/12/05 14:04:10;;;;;;;1.63;0.60;;;18.10;56.10;;;;;;5051643;28;20233;-64
2021/12/05 14:06:57;;;;;;;0.70;0.70;;;18.10;55.90;;;;;;5055382;28;20171;-64
2021/12/05 14:09:30;;;;;;;0.70;0.70;;;18.10;55.70;;;;;;5072505;28;20254;-64
2021/12/05 14:12:06;;;;;;;1.35;0.73;;;18.10;55.70;;;;;;5071842;28;20571;-62
2021/12/05 14:15:02;;;;;;;1.58;0.80;;;18.10;55.90;;;;;;5072323;28;20265;-66
2021/12/05 14:17:28;;;;;;;3.22;1.42;;;18.00;55.90;;;;;;5066995;28;20638;-66
2021/12/05 14:19:58;;;;;;;1.77;1.00;;;18.00;56.00;;;;;;5072329;28;20265;-63
2021/12/05 14:22:25;;;;;;;3.10;1.10;;;18.00;56.30;;;;;;5071889;28;20231;-62
2021/12/05 14:24:53;;;;;;;2.38;1.10;;;18.00;56.30;;;;;;5071494;28;20214;-63
2021/12/05 14:27:20;;;;;;;2.15;1.20;;;18.00;56.30;;;;;;5072352;28;20217;-62
2021/12/05 14:29:47;;;;;;;2.78;0.90;;;18.20;56.30;;;;;;5072253;28;20178;-63
2021/12/05 14:32:18;;;;;;;1.25;0.90;;;18.30;56.20;;;;;;5071712;28;20171;-63
2021/12/05 14:34:43;;;;;;;2.55;0.80;;;18.60;55.70;;;;;;5071875;28;20232;-66
2021/12/05 14:37:14;;;;;;;1.92;1.27;;;19.00;55.20;;;;;;5072310;28;20175;-66
2021/12/05 14:39:40;;;;;;;1.88;1.00;;;19.20;54.60;;;;;;5071256;28;20210;-65
2021/12/05 14:42:10;;;;;;;1.40;1.05;;;19.50;54.20;;;;;;5071990;28;20181;-65
2021/12/05 14:44:37;;;;;;;1.25;0.90;;;19.50;54.00;;;;;;5071753;28;20271;-64
2021/12/05 14:47:13;;;;;;;1.75;0.50;;;19.70;54.00;;;;;;5071031;28;20289;-65
2021/12/05 14:49:41;;;;;;;1.10;0.70;;;19.80;53.80;;;;;;5071589;28;20666;-64
2021/12/05 14:52:18;;;;;;;2.67;1.00;;;19.80;53.60;;;;;;5071056;28;20226;-64
2021/12/05 14:54:44;;;;;;;4.18;1.10;;;19.80;53.70;;;;;;5071895;28;20197;-74
2021/12/05 14:57:15;;;;;;;1.50;1.27;;;19.80;53.80;;;;;;5070924;28;20633;-73
2021/12/05 14:59:41;;;;;;;2.20;0.98;;;19.70;53.70;;;;;;5070758;28;20185;-66
2021/12/05 15:02:07;;;;;;;3.80;1.10;;;19.70;53.70;;;;;;5071941;28;20192;-65
2021/12/05 15:04:36;;;;;;;3.40;1.05;;;19.60;53.80;;;;;;5071117;28;20218;-66
2021/12/05 15:07:02;;;;;;;1.10;0.70;;;19.60;53.90;;;;;;5064779;28;20232;-65
2021/12/05 15:09:34;;;;;;;1.63;0.80;;;19.60;54.10;;;;;;5051481;28;20549;-64
2021/12/05 15:12:04;;;;;;;4.80;0.95;;;19.60;54.10;;;;;;5051474;28;20178;-64
2021/12/05 15:14:30;;;;;;;1.73;0.90;;;19.60;54.10;;;;;;5050544;28;20576;-64
2021/12/05 15:17:05;;;;;;;0.77;0.77;;;19.60;54.20;;;;;;5051755;28;20178;-65
2021/12/05 15:19:30;;;;;;;2.80;0.90;;;19.50;54.30;;;;;;5051156;28;20252;-65
2021/12/05 15:21:56;;;;;;;2.40;0.85;;;19.50;54.50;;;;;;5050837;28;20578;-63
2021/12/05 15:24:22;;;;;;;2.63;1.00;;;19.50;54.50;;;;;;5051119;28;20610;-64
2021/12/05 15:26:48;;;;;;;2.58;0.88;;;19.50;54.50;;;;;;5051458;28;20171;-64
2021/12/05 15:29:14;;;;;;;1.63;0.70;;;19.50;54.50;;;;;;5050975;28;20249;-64
2021/12/05 15:31:41;;;;;;;2.28;0.98;;;19.50;54.60;;;;;;5051237;28;20179;-65
2021/12/05 15:34:20;;;;;;;1.88;0.93;;;19.50;54.70;;;;;;5050493;28;20193;-66
2021/12/05 15:36:45;;;;;;;0.85;0.70;;;19.50;54.70;;;;;;5051382;28;20649;-66
2021/12/05 15:39:19;;;;;;;1.13;0.98;;;19.50;55.40;;;;;;5051491;28;20297;-65
2021/12/05 15:41:45;;;;;;;1.17;0.82;;;19.50;54.80;;;;;;5050560;28;20258;-65
2021/12/05 15:44:10;;;;;;;0.60;0.60;;;19.50;54.80;;;;;;5049869;28;20222;-63
2021/12/05 15:46:35;;;;;;;1.35;0.68;;;19.50;54.90;;;;;;5049580;28;20167;-63
2021/12/05 15:49:04;;;;;;;0.70;0.70;;;19.50;54.90;;;;;;5050681;28;20642;-63
2021/12/05 15:51:30;;;;;;;3.40;0.88;;;19.50;54.90;;;;;;5050780;28;20272;-64
2021/12/05 15:53:57;;;;;;;3.03;0.90;;;19.60;54.90;;;;;;5050910;28;20600;-66
2021/12/05 15:56:24;;;;;;;2.35;1.00;;;19.60;55.00;;;;;;5049771;28;20186;-60
2021/12/05 15:58:58;;;;;;;3.60;1.00;;;19.50;54.90;;;;;;5051176;28;20233;-60
2021/12/05 16:01:24;;;;;;;3.38;0.90;;;19.60;55.00;;;;;;5050958;28;20174;-60
2021/12/05 16:04:00;;;;;;;2.42;0.90;;;19.50;55.00;;;;;;5049160;28;20203;-60
2021/12/05 16:06:34;;;;;;;1.98;0.80;;;19.50;55.10;;;;;;5051963;28;20583;-60
2021/12/05 16:09:13;;;;;;;1.60;0.85;;;19.50;55.10;;;;;;5074932;28;20173;-60
2021/12/05 16:11:38;;;;;;;1.00;0.77;;;19.50;55.10;;;;;;5073011;28;20208;-61
2021/12/05 16:14:04;;;;;;;2.20;0.70;;;19.50;55.10;;;;;;5075007;28;20586;-61
2021/12/05 16:16:30;;;;;;;1.30;0.80;;;19.50;55.30;;;;;;5073809;28;20487;-60
2021/12/05 16:18:58;;;;;;;0.90;0.82;;;19.50;55.30;;;;;;5074788;28;20171;-60
2021/12/05 16:21:33;;;;;;;2.80;1.25;;;19.50;55.30;;;;;;5074575;28;20253;-60
2021/12/05 16:24:13;;;;;;;1.13;1.02;;;19.50;55.20;;;;;;5074068;28;20305;-60
2021/12/05 16:26:42;;;;;;;2.20;1.00;;;19.60;55.20;;;;;;5074346;28;20221;-60
2021/12/05 16:29:11;;;;;;;1.10;1.00;;;19.60;55.30;;;;;;5074575;28;20198;-61
2021/12/05 16:31:57;;;;;;;1.35;0.93;;;19.60;55.20;;;;;;5073524;28;20170;-60
2021/12/05 16:34:25;;;;;;;1.05;0.90;;;19.60;55.20;;;;;;5074213;28;20578;-61
2021/12/05 16:36:56;;;;;;;0.90;0.85;;;19.60;55.20;;;;;;5074285;28;20257;-62
2021/12/05 16:39:27;;;;;;;1.48;1.05;;;19.60;54.90;;;;;;5073347;28;20543;-61
2021/12/05 16:41:55;;;;;;;1.25;1.00;;;19.50;54.80;;;;;;5074363;28;20544;-61
2021/12/05 16:44:28;;;;;;;2.10;1.05;;;19.40;54.80;;;;;;5074118;28;20217;-61
2021/12/05 16:46:56;;;;;;;1.13;1.00;;;19.30;55.00;;;;;;5074650;28;20250;-61
2021/12/05 16:49:24;;;;;;;1.23;1.13;;;19.20;55.10;;;;;;5073964;28;20237;-61
2021/12/05 16:51:54;;;;;;;1.00;1.00;;;19.10;55.20;;;;;;5073325;28;20222;-61
2021/12/05 16:54:24;;;;;;;1.45;1.00;;;19.00;55.30;;;;;;5073779;28;20182;-63
2021/12/05 16:56:58;;;;;;;1.33;0.98;;;19.00;55.30;;;;;;5074337;28;20170;-61
2021/12/05 16:59:48;;;;;;;1.95;1.23;;;19.00;55.30;;;;;;5055193;28;20186;-61
2021/12/05 17:02:20;;;;;;;1.35;1.25;;;19.00;55.20;;;;;;5039791;28;20180;-62
2021/12/05 17:04:58;;;;;;;5.65;1.63;;;19.10;55.20;;;;;;5053774;28;20657;-60
2021/12/05 17:07:49;;;;;;;4.97;1.90;;;19.10;55.20;;;;;;5062209;28;20175;-60
2021/12/05 17:10:20;;;;;;;2.33;1.27;;;19.20;55.10;;;;;;5073996;28;20194;-59
2021/12/05 17:12:49;;;;;;;4.10;1.67;;;19.20;55.00;;;;;;5073052;28;20215;-59
2021/12/05 17:15:22;;;;;;;2.45;1.17;;;19.30;55.00;;;;;;5065932;28;20646;-60
2021/12/05 17:17:48;;;;;;;3.15;1.58;;;19.30;54.80;;;;;;5053532;28;20639;-60
2021/12/05 17:20:46;;;;;;;1.63;1.40;;;19.40;54.70;;;;;;5052081;28;20228;-60
2021/12/05 17:23:23;;;;;;;3.72;1.63;;;19.40;54.60;;;;;;5053805;28;20214;-59
2021/12/05 17:25:51;;;;;;;1.80;1.50;;;19.40;54.50;;;;;;5053793;28;20216;-59
2021/12/05 17:28:28;;;;;;;2.45;1.90;;;19.40;54.40;;;;;;5052649;28;20182;-60
2021/12/05 17:30:56;;;;;;;4.53;1.65;;;19.40;54.30;;;;;;5053459;28;20206;-60
2021/12/05 17:33:33;;;;;;;3.55;1.77;;;19.40;54.30;;;;;;5053169;28;20545;-60
2021/12/05 17:36:16;;;;;;;6.88;2.40;;;19.40;54.30;;;;;;5052651;28;20181;-60
2021/12/05 17:38:42;;;;;;;2.88;1.92;;;19.50;54.20;;;;;;5053084;28;20171;-60
2021/12/05 17:41:07;;;;;;;3.67;2.22;;;19.40;54.00;;;;;;5052518;28;20221;-60
2021/12/05 17:43:36;;;;;;;6.45;2.72;;;19.50;54.00;;;;;;5052787;28;20533;-60
2021/12/05 17:46:01;;;;;;;4.90;2.35;;;19.60;54.10;;;;;;5053154;28;20167;-59
2021/12/05 17:48:28;;;;;;;3.55;2.10;;;19.60;54.00;;;;;;5051967;28;20179;-60
2021/12/05 17:50:55;;;;;;;5.35;2.38;;;19.60;54.10;;;;;;5052945;28;20297;-59
2021/12/05 17:53:21;;;;;;;3.85;1.95;;;19.60;54.20;;;;;;5052926;28;20175;-61
2021/12/05 17:55:48;;;;;;;3.22;1.85;;;19.70;54.20;;;;;;5052356;28;20345;-60
2021/12/05 17:58:33;;;;;;;6.20;2.08;;;19.70;54.20;;;;;;5053107;28;20183;-60
2021/12/05 18:02:41;;;;;;;4.85;1.90;;;19.70;54.40;;;;;;5053032;28;20203;-61
2021/12/05 18:03:45;;;;;;;5.03;1.75;;;19.70;54.40;;;;;;5052254;28;20206;-60
2021/12/05 18:06:10;;;;;;;3.30;2.20;;;19.60;54.70;;;;;;5053220;28;20202;-60
2021/12/05 18:08:36;;;;;;;2.72;1.70;;;19.60;54.90;;;;;;5072093;28;20211;-60